Time;durP1;ratioP1;P1;durP2;ratioP2;P2;SDS_P1;SDS_P2;PMS_P1;PMS_P2;Temp;Humidity;BMP_temperature;BMP_pressure;BME280_temperature;BME280_humidity;BME280_pressure;Samples;Min_cycle;Max_cycle;Signal;HPM_P1;HPM_P2
2021/12/15 00:00:09;;;;;;;60.28;31.08;;;;;;;;;;6189487;28;20059;-71
2021/12/15 00:03:36;;;;;;;59.03;31.05;;;;;;;;;;6194237;28;20050;-73
2021/12/15 00:06:39;;;;;;;56.92;31.38;;;;;;;;;;6195146;28;20047;-72
2021/12/15 00:09:42;;;;;;;58.22;30.15;;;;;;;;;;6193760;28;20054;-74
2021/12/15 00:12:45;;;;;;;57.42;31.58;;;;;;;;;;6191992;28;20093;-74
2021/12/15 00:15:49;;;;;;;56.58;31.02;;;;;;;;;;6192686;28;20101;-73
2021/12/15 00:18:53;;;;;;;55.85;30.17;;;;;;;;;;6192683;28;20060;-73
2021/12/15 00:21:57;;;;;;;61.47;31.33;;;;;;;;;;6192965;28;20050;-72
2021/12/15 00:25:02;;;;;;;53.90;30.33;;;;;;;;;;6193598;28;20053;-74
2021/12/15 00:28:05;;;;;;;57.10;29.45;;;;;;;;;;6192543;28;20050;-74
2021/12/15 00:31:08;;;;;;;57.80;30.15;;;;;;;;;;6191671;28;20202;-74
2021/12/15 00:34:15;;;;;;;59.15;31.17;;;;;;;;;;6191912;28;20050;-74
2021/12/15 00:37:18;;;;;;;61.08;32.22;;;;;;;;;;6192610;28;20132;-73
2021/12/15 00:40:26;;;;;;;57.70;31.48;;;;;;;;;;6192387;28;20046;-74
2021/12/15 00:43:32;;;;;;;57.40;30.70;;;;;;;;;;6191707;28;20108;-73
2021/12/15 00:46:35;;;;;;;57.38;29.52;;;;;;;;;;6192031;28;20050;-73
2021/12/15 00:49:40;;;;;;;57.63;31.02;;;;;;;;;;6192398;28;20046;-73
2021/12/15 00:52:46;;;;;;;57.90;31.05;;;;;;;;;;6191510;28;20050;-73
2021/12/15 00:55:49;;;;;;;56.13;30.27;;;;;;;;;;6193213;28;20039;-74
2021/12/15 00:58:52;;;;;;;55.25;31.60;;;;;;;;;;6192095;28;20050;-73
2021/12/15 01:01:56;;;;;;;57.70;28.17;;;;;;;;;;6192291;28;20046;-74
2021/12/15 01:05:01;;;;;;;59.47;30.95;;;;;;;;;;6195995;28;20053;-73
2021/12/15 01:08:06;;;;;;;56.85;31.88;;;;;;;;;;6196490;28;20412;-73
2021/12/15 01:11:22;;;;;;;55.55;29.27;;;;;;;;;;6196902;28;20057;-74
2021/12/15 01:19:44;;;;;;;59.05;29.75;;;;;;;;;;6196133;28;20047;-73
2021/12/15 01:21:21;;;;;;;57.05;30.27;;;;;;;;;;6197495;28;20054;-74
2021/12/15 01:24:24;;;;;;;55.05;31.13;;;;;;;;;;6196466;28;20460;-73
2021/12/15 01:27:27;;;;;;;52.03;29.50;;;;;;;;;;6196612;28;20133;-74
2021/12/15 01:30:32;;;;;;;55.42;28.67;;;;;;;;;;6195402;28;20042;-75
2021/12/15 01:33:36;;;;;;;50.08;27.83;;;;;;;;;;6197433;28;20046;-74
2021/12/15 01:36:40;;;;;;;55.65;28.45;;;;;;;;;;6195857;28;20050;-74
2021/12/15 01:39:52;;;;;;;53.92;28.50;;;;;;;;;;6194942;28;20050;-74
2021/12/15 01:42:55;;;;;;;49.50;27.75;;;;;;;;;;6195516;28;20386;-74
2021/12/15 01:49:23;;;;;;;52.75;28.20;;;;;;;;;;6195527;28;20055;-72
2021/12/15 01:52:28;;;;;;;51.08;27.85;;;;;;;;;;6194856;28;20129;-74
2021/12/15 01:55:32;;;;;;;55.47;28.33;;;;;;;;;;6195576;28;20050;-74
2021/12/15 01:58:35;;;;;;;56.15;28.60;;;;;;;;;;6196593;28;20543;-74
2021/12/15 02:01:38;;;;;;;49.72;26.95;;;;;;;;;;6194745;28;20093;-74
2021/12/15 02:04:41;;;;;;;53.08;28.58;;;;;;;;;;6196231;28;20046;-74
2021/12/15 02:07:47;;;;;;;54.22;28.83;;;;;;;;;;6195602;28;20050;-74
2021/12/15 02:10:50;;;;;;;55.37;28.43;;;;;;;;;;6194967;28;20101;-73
2021/12/15 02:13:55;;;;;;;53.95;27.33;;;;;;;;;;6194124;28;20050;-74
2021/12/15 02:16:59;;;;;;;54.30;27.27;;;;;;;;;;6195201;28;20047;-73
2021/12/15 02:20:03;;;;;;;49.40;28.17;;;;;;;;;;6196375;28;20073;-73
2021/12/15 02:23:11;;;;;;;55.20;29.02;;;;;;;;;;6194128;28;20057;-74
2021/12/15 02:26:16;;;;;;;50.33;27.95;;;;;;;;;;6194532;28;20046;-74
2021/12/15 02:29:21;;;;;;;49.97;28.52;;;;;;;;;;6195751;28;20339;-74
2021/12/15 02:32:36;;;;;;;56.27;29.10;;;;;;;;;;6194392;28;20050;-74
2021/12/15 02:39:05;;;;;;;50.28;28.42;;;;;;;;;;6194275;28;20489;-74
2021/12/15 02:42:08;;;;;;;55.88;28.80;;;;;;;;;;6194757;28;20053;-73
2021/12/15 02:45:16;;;;;;;53.33;27.58;;;;;;;;;;6193765;28;20047;-73
2021/12/15 02:48:18;;;;;;;54.90;28.48;;;;;;;;;;6194986;28;20060;-73
2021/12/15 02:51:22;;;;;;;51.60;26.88;;;;;;;;;;6194447;28;20474;-72
2021/12/15 02:54:28;;;;;;;51.03;27.83;;;;;;;;;;6194485;28;20035;-73
2021/12/15 02:57:32;;;;;;;50.90;27.25;;;;;;;;;;6193580;28;20413;-72
2021/12/15 03:00:47;;;;;;;50.17;29.00;;;;;;;;;;6193598;28;20054;-73
2021/12/15 03:04:14;;;;;;;50.05;27.80;;;;;;;;;;6194168;28;20046;-72
2021/12/15 03:07:27;;;;;;;49.05;27.02;;;;;;;;;;6195065;28;20100;-72
2021/12/15 03:17:12;;;;;;;52.95;28.23;;;;;;;;;;6195203;28;20057;-73
2021/12/15 03:20:17;;;;;;;50.33;27.95;;;;;;;;;;6193287;28;20185;-73
2021/12/15 03:23:21;;;;;;;55.28;26.92;;;;;;;;;;6193909;28;20501;-73
2021/12/15 03:26:32;;;;;;;56.35;27.95;;;;;;;;;;6192703;28;20061;-73
2021/12/15 03:36:35;;;;;;;51.92;27.38;;;;;;;;;;6193541;28;20050;-73
2021/12/15 03:39:41;;;;;;;55.25;28.02;;;;;;;;;;6192949;28;20049;-72
2021/12/15 03:42:48;;;;;;;53.88;27.65;;;;;;;;;;6193653;28;20042;-73
2021/12/15 03:45:53;;;;;;;54.47;30.98;;;;;;;;;;6193747;28;20073;-72
2021/12/15 03:48:56;;;;;;;55.13;27.98;;;;;;;;;;6192278;28;20053;-73
2021/12/15 03:51:59;;;;;;;54.22;29.83;;;;;;;;;;6193144;28;20052;-72
2021/12/15 03:55:03;;;;;;;52.08;28.25;;;;;;;;;;6194410;28;20057;-72
2021/12/15 03:58:10;;;;;;;53.20;29.35;;;;;;;;;;6192844;28;20144;-73
2021/12/15 04:01:14;;;;;;;55.00;28.80;;;;;;;;;;6193929;28;20054;-72
2021/12/15 04:04:17;;;;;;;51.05;28.52;;;;;;;;;;6193464;28;20046;-72
2021/12/15 04:07:21;;;;;;;55.25;28.52;;;;;;;;;;6193724;28;20050;-70
2021/12/15 04:10:25;;;;;;;52.53;27.20;;;;;;;;;;6192146;28;20547;-71
2021/12/15 04:13:29;;;;;;;54.17;29.42;;;;;;;;;;6192935;28;20042;-72
2021/12/15 04:16:44;;;;;;;50.75;27.25;;;;;;;;;;6192587;28;20047;-70
2021/12/15 04:19:47;;;;;;;52.72;28.08;;;;;;;;;;6192709;28;20405;-70
2021/12/15 04:22:52;;;;;;;57.00;28.07;;;;;;;;;;6192595;28;20046;-71
2021/12/15 04:25:56;;;;;;;54.47;29.08;;;;;;;;;;6193954;28;20412;-72
2021/12/15 04:29:02;;;;;;;55.45;28.15;;;;;;;;;;6191747;28;20057;-72
2021/12/15 04:32:10;;;;;;;49.60;28.23;;;;;;;;;;6191834;28;20079;-72
2021/12/15 04:35:13;;;;;;;53.47;28.40;;;;;;;;;;6193941;28;20416;-72
2021/12/15 04:38:16;;;;;;;51.80;28.48;;;;;;;;;;6198266;28;20042;-73
2021/12/15 04:41:19;;;;;;;54.72;28.67;;;;;;;;;;6196205;28;20423;-71
2021/12/15 04:44:39;;;;;;;48.17;27.73;;;;;;;;;;6196926;28;20488;-71
2021/12/15 04:47:42;;;;;;;51.00;28.48;;;;;;;;;;6198580;28;20046;-74
2021/12/15 04:50:46;;;;;;;53.78;28.63;;;;;;;;;;6197881;28;20046;-73
2021/12/15 04:53:49;;;;;;;52.13;27.63;;;;;;;;;;6196200;28;20048;-73
2021/12/15 04:56:55;;;;;;;48.38;27.50;;;;;;;;;;6198578;28;20485;-73
2021/12/15 04:59:59;;;;;;;51.17;27.42;;;;;;;;;;6198402;28;20066;-73
2021/12/15 05:03:03;;;;;;;45.75;26.27;;;;;;;;;;6195574;28;20050;-73
2021/12/15 05:06:07;;;;;;;51.45;27.02;;;;;;;;;;6196659;28;20177;-71
2021/12/15 05:09:10;;;;;;;49.40;26.85;;;;;;;;;;6196826;28;20058;-74
2021/12/15 05:12:13;;;;;;;51.28;27.27;;;;;;;;;;6195929;28;20181;-71
2021/12/15 05:15:20;;;;;;;52.00;28.13;;;;;;;;;;6195882;28;20050;-72
2021/12/15 05:18:22;;;;;;;54.50;29.42;;;;;;;;;;6196629;28;20042;-71
2021/12/15 05:21:26;;;;;;;52.95;28.23;;;;;;;;;;6197605;28;20046;-72
2021/12/15 05:24:31;;;;;;;50.88;28.98;;;;;;;;;;6196315;28;20129;-72
2021/12/15 05:27:35;;;;;;;51.97;27.70;;;;;;;;;;6197536;28;20097;-73
2021/12/15 05:30:39;;;;;;;52.15;28.90;;;;;;;;;;6196179;28;20159;-72
2021/12/15 05:33:45;;;;;;;57.50;29.88;;;;;;;;;;6196594;28;20046;-74
2021/12/15 05:36:48;;;;;;;58.17;30.85;;;;;;;;;;6196987;28;20078;-74
2021/12/15 05:39:53;;;;;;;;;;;;;;;;;;6196736;28;20484;-73
2021/12/15 05:42:57;;;;;;;57.75;29.33;;;;;;;;;;6197123;28;20025;-73
2021/12/15 05:46:01;;;;;;;52.42;30.52;;;;;;;;;;6194695;28;20054;-73
2021/12/15 05:49:05;;;;;;;57.55;31.55;;;;;;;;;;6196412;28;20106;-73
2021/12/15 05:52:08;;;;;;;54.85;30.17;;;;;;;;;;6196957;28;20046;-73
2021/12/15 05:55:13;;;;;;;57.05;31.58;;;;;;;;;;6194464;28;20050;-73
2021/12/15 05:58:16;;;;;;;57.42;31.98;;;;;;;;;;6196068;28;20423;-73
2021/12/15 06:01:20;;;;;;;61.78;31.75;;;;;;;;;;6195714;28;20055;-73
2021/12/15 06:04:25;;;;;;;58.60;31.25;;;;;;;;;;6194999;28;20050;-73
2021/12/15 06:07:28;;;;;;;57.55;32.35;;;;;;;;;;6195634;28;20534;-73
2021/12/15 06:10:31;;;;;;;60.00;33.40;;;;;;;;;;6196531;28;20417;-73
2021/12/15 06:13:34;;;;;;;58.72;30.95;;;;;;;;;;6195147;28;20507;-73
2021/12/15 06:16:39;;;;;;;56.95;30.67;;;;;;;;;;6195250;28;20050;-73
2021/12/15 06:19:44;;;;;;;55.05;29.20;;;;;;;;;;6196450;28;20057;-73
2021/12/15 06:22:47;;;;;;;62.80;32.10;;;;;;;;;;6196102;28;20046;-74
2021/12/15 06:25:55;;;;;;;57.70;31.30;;;;;;;;;;6193569;28;20386;-73
2021/12/15 06:28:58;;;;;;;62.57;31.70;;;;;;;;;;6194600;28;20046;-73
2021/12/15 06:32:03;;;;;;;54.05;29.00;;;;;;;;;;6194696;28;20050;-74
2021/12/15 06:35:07;;;;;;;59.03;31.52;;;;;;;;;;6196381;28;20046;-74
2021/12/15 06:38:10;;;;;;;56.20;32.40;;;;;;;;;;6193884;28;20096;-72
2021/12/15 06:41:14;;;;;;;59.63;31.70;;;;;;;;;;6195293;28;20049;-73
2021/12/15 06:44:19;;;;;;;149.07;72.97;;;;;;;;;;6195661;28;20485;-73
2021/12/15 06:58:10;;;;;;;60.05;33.38;;;;;;;;;;6194813;28;20050;-73
2021/12/15 07:01:00;;;;;;;57.55;30.85;;;;;;;;;;6192450;28;20047;-71
2021/12/15 07:04:04;;;;;;;55.10;30.95;;;;;;;;;;6193952;28;20145;-72
2021/12/15 07:07:08;;;;;;;61.30;29.58;;;;;;;;;;6195094;28;20177;-73
2021/12/15 07:10:11;;;;;;;67.80;31.88;;;;;;;;;;6194946;28;20128;-73
2021/12/15 07:13:17;;;;;;;;;;;;;;;;;;6193224;28;20412;-73
2021/12/15 07:16:20;;;;;;;81.70;29.40;;;;;;;;;;6192739;28;19921;-73
2021/12/15 07:19:33;;;;;;;79.50;30.20;;;;;;;;;;6192703;28;20042;-73
2021/12/15 07:22:43;;;;;;;82.85;29.80;;;;;;;;;;6193127;28;20052;-73
2021/12/15 07:25:51;;;;;;;62.88;29.08;;;;;;;;;;6192373;28;20442;-73
2021/12/15 07:28:54;;;;;;;64.25;29.23;;;;;;;;;;6192530;28;20353;-74
2021/12/15 07:31:57;;;;;;;67.80;31.42;;;;;;;;;;6193614;28;20050;-74
2021/12/15 07:35:01;;;;;;;75.55;32.65;;;;;;;;;;6192617;28;20150;-72
2021/12/15 07:38:05;;;;;;;77.53;31.05;;;;;;;;;;6191278;28;20043;-73
2021/12/15 07:41:16;;;;;;;73.25;30.73;;;;;;;;;;6191718;28;20743;-72
2021/12/15 07:44:22;;;;;;;74.93;31.25;;;;;;;;;;6190599;28;20057;-73
2021/12/15 07:47:25;;;;;;;71.55;31.45;;;;;;;;;;6189344;28;20521;-72
2021/12/15 07:50:30;;;;;;;62.35;29.27;;;;;;;;;;6191680;28;20046;-73
2021/12/15 07:53:33;;;;;;;74.20;31.55;;;;;;;;;;6194139;28;20116;-72
2021/12/15 07:56:36;;;;;;;75.72;30.77;;;;;;;;;;6193629;28;20120;-74
2021/12/15 07:59:39;;;;;;;76.22;29.95;;;;;;;;;;6193081;28;20137;-73
2021/12/15 08:02:45;;;;;;;68.95;31.30;;;;;;;;;;6192792;28;20149;-73
2021/12/15 08:05:50;;;;;;;67.30;30.55;;;;;;;;;;6194478;28;20045;-73
2021/12/15 08:08:54;;;;;;;61.38;30.35;;;;;;;;;;6192804;28;20058;-74
2021/12/15 08:11:59;;;;;;;57.70;28.17;;;;;;;;;;6193767;28;20046;-71
2021/12/15 08:15:07;;;;;;;63.90;31.13;;;;;;;;;;6194129;28;20117;-73
2021/12/15 08:18:12;;;;;;;69.72;31.52;;;;;;;;;;6191589;28;20122;-73
2021/12/15 08:21:16;;;;;;;61.63;30.13;;;;;;;;;;6191855;28;20058;-73
2021/12/15 08:24:19;;;;;;;63.67;31.40;;;;;;;;;;6193875;28;20571;-73
2021/12/15 08:27:23;;;;;;;57.38;29.00;;;;;;;;;;6192197;28;20401;-71
2021/12/15 08:30:26;;;;;;;58.13;29.65;;;;;;;;;;6192347;28;20064;-74
2021/12/15 08:33:34;;;;;;;61.15;29.15;;;;;;;;;;6192341;28;20521;-73
2021/12/15 08:36:39;;;;;;;59.55;29.85;;;;;;;;;;6192492;28;20125;-73
2021/12/15 08:39:42;;;;;;;56.10;28.23;;;;;;;;;;6191360;28;20129;-73
2021/12/15 08:42:45;;;;;;;55.85;27.13;;;;;;;;;;6191628;28;20642;-70
2021/12/15 08:45:51;;;;;;;57.65;27.90;;;;;;;;;;6192318;28;20097;-72
2021/12/15 08:48:54;;;;;;;55.63;28.23;;;;;;;;;;6193124;28;20050;-73
2021/12/15 08:51:58;;;;;;;53.25;27.45;;;;;;;;;;6190817;28;20046;-71
2021/12/15 08:55:02;;;;;;;53.78;27.83;;;;;;;;;;6193412;28;20057;-72
2021/12/15 08:58:06;;;;;;;58.35;30.63;;;;;;;;;;6191787;28;20691;-73
2021/12/15 09:01:09;;;;;;;51.33;27.02;;;;;;;;;;6192606;28;20050;-71
2021/12/15 09:04:14;;;;;;;55.15;29.73;;;;;;;;;;6193011;28;20121;-73
2021/12/15 09:07:18;;;;;;;52.08;27.45;;;;;;;;;;6192167;28;20090;-73
2021/12/15 09:10:29;;;;;;;54.83;29.95;;;;;;;;;;6191420;28;20042;-74
2021/12/15 09:13:35;;;;;;;55.15;27.88;;;;;;;;;;6192031;28;20054;-73
2021/12/15 09:16:42;;;;;;;51.38;25.90;;;;;;;;;;6193360;28;20050;-73
2021/12/15 09:19:45;;;;;;;56.95;28.90;;;;;;;;;;6191858;28;20131;-74
2021/12/15 09:22:49;;;;;;;52.97;27.88;;;;;;;;;;6191192;28;20050;-74
2021/12/15 09:25:52;;;;;;;49.45;26.58;;;;;;;;;;6196017;28;20045;-74
2021/12/15 09:28:55;;;;;;;47.03;24.85;;;;;;;;;;6197579;28;20065;-73
2021/12/15 09:31:58;;;;;;;42.47;24.50;;;;;;;;;;6197130;28;20050;-73
2021/12/15 09:35:01;;;;;;;46.15;24.17;;;;;;;;;;6195137;28;20053;-74
2021/12/15 09:38:06;;;;;;;41.42;23.13;;;;;;;;;;6196166;28;20397;-74
2021/12/15 09:41:11;;;;;;;43.63;23.65;;;;;;;;;;6197413;28;20100;-74
2021/12/15 09:44:17;;;;;;;42.97;23.95;;;;;;;;;;6195997;28;20090;-73
2021/12/15 09:47:40;;;;;;;38.78;21.73;;;;;;;;;;6197327;28;20098;-75
2021/12/15 09:57:35;;;;;;;91.45;41.80;;;;;;;;;;6194251;28;20050;-72
2021/12/15 10:04:24;;;;;;;88.97;41.92;;;;;;;;;;6129634;29;20437;-73
2021/12/15 10:11:11;;;;;;;81.07;37.53;;;;;;;;;;6193896;28;20103;-73
2021/12/15 10:17:44;;;;;;;78.65;38.90;;;;;;;;;;6196405;28;20046;-72
2021/12/15 10:20:47;;;;;;;86.03;38.97;;;;;;;;;;6195279;28;20049;-73
2021/12/15 10:23:51;;;;;;;82.65;40.10;;;;;;;;;;6195059;28;20053;-72
2021/12/15 10:26:57;;;;;;;89.90;41.88;;;;;;;;;;6195146;28;20528;-73
2021/12/15 10:30:02;;;;;;;88.63;41.05;;;;;;;;;;6194808;28;20404;-72
2021/12/15 10:33:06;;;;;;;89.78;42.33;;;;;;;;;;6194749;28;20057;-72
2021/12/15 10:36:11;;;;;;;86.32;43.50;;;;;;;;;;6194895;28;20121;-74
2021/12/15 10:39:16;;;;;;;91.40;44.92;;;;;;;;;;6194539;28;20054;-72
2021/12/15 10:42:30;;;;;;;84.63;40.05;;;;;;;;;;6195923;28;20074;-73
2021/12/15 10:45:35;;;;;;;88.70;40.88;;;;;;;;;;6195269;28;20049;-71
2021/12/15 10:48:49;;;;;;;153.52;44.75;;;;;;;;;;6193478;28;20117;-72
2021/12/15 10:51:55;;;;;;;285.42;55.90;;;;;;;;;;6195835;28;20047;-74
2021/12/15 10:55:03;;;;;;;92.55;43.92;;;;;;;;;;6194405;28;20125;-73
2021/12/15 10:58:21;;;;;;;89.50;43.00;;;;;;;;;;6176905;28;20058;-72
2021/12/15 11:01:34;;;;;;;102.43;43.45;;;;;;;;;;6194493;28;20050;-72
2021/12/15 11:04:42;;;;;;;86.13;42.40;;;;;;;;;;6195725;28;20092;-72
2021/12/15 11:07:46;;;;;;;105.00;46.10;;;;;;;;;;6193850;28;20251;-73
2021/12/15 11:10:51;;;;;;;96.55;44.70;;;;;;;;;;6194031;28;20042;-72
2021/12/15 11:13:54;;;;;;;93.90;45.90;;;;;;;;;;6193524;28;20128;-74
2021/12/15 11:17:06;;;;;;;95.13;47.67;;;;;;;;;;6195340;28;20050;-71
2021/12/15 11:20:14;;;;;;;98.03;47.42;;;;;;;;;;6193109;28;20117;-72
2021/12/15 11:23:20;;;;;;;90.75;44.42;;;;;;;;;;6193767;28;20481;-74
2021/12/15 11:26:23;;;;;;;103.45;48.95;;;;;;;;;;6193677;28;20150;-73
2021/12/15 11:29:39;;;;;;;98.75;48.22;;;;;;;;;;6194527;28;20054;-73
2021/12/15 11:32:42;;;;;;;;;;;;;;;;;;6192844;28;20196;-72
2021/12/15 11:35:48;;;;;;;101.72;46.20;;;;;;;;;;6194293;28;20364;-73
2021/12/15 11:38:52;;;;;;;95.82;48.13;;;;;;;;;;6194760;28;20066;-73
2021/12/15 11:41:56;;;;;;;97.38;45.78;;;;;;;;;;6195096;28;20096;-73
2021/12/15 11:45:05;;;;;;;109.20;52.17;;;;;;;;;;6193465;28;20512;-72
2021/12/15 11:48:12;;;;;;;105.07;47.15;;;;;;;;;;6193995;28;20046;-73
2021/12/15 11:51:26;;;;;;;100.80;48.58;;;;;;;;;;6194814;28;20125;-71
2021/12/15 11:54:30;;;;;;;95.10;48.47;;;;;;;;;;6191886;28;20116;-73
2021/12/15 11:57:33;;;;;;;108.70;50.50;;;;;;;;;;6193298;28;20062;-73
2021/12/15 12:00:36;;;;;;;94.57;48.13;;;;;;;;;;6192796;28;20077;-72
2021/12/15 12:03:39;;;;;;;101.25;49.08;;;;;;;;;;6192519;28;20169;-72
2021/12/15 12:06:45;;;;;;;99.50;46.67;;;;;;;;;;6192657;28;20405;-73
2021/12/15 12:09:52;;;;;;;106.97;48.08;;;;;;;;;;6192844;28;20061;-73
2021/12/15 12:13:04;;;;;;;104.40;49.08;;;;;;;;;;6192841;28;20097;-73
2021/12/15 12:16:08;;;;;;;103.03;49.65;;;;;;;;;;6191721;28;20042;-72
2021/12/15 12:19:12;;;;;;;97.93;47.30;;;;;;;;;;6192070;28;20050;-72
2021/12/15 12:22:17;;;;;;;106.80;53.80;;;;;;;;;;6193992;28;20046;-71
2021/12/15 12:25:22;;;;;;;99.47;50.57;;;;;;;;;;6192181;28;20555;-72
2021/12/15 12:28:27;;;;;;;99.93;49.38;;;;;;;;;;6192649;28;20190;-72
2021/12/15 12:31:30;;;;;;;100.80;49.92;;;;;;;;;;6192673;28;20043;-73
2021/12/15 12:34:33;;;;;;;102.57;50.05;;;;;;;;;;6193582;28;20101;-73
2021/12/15 12:37:40;;;;;;;111.63;52.20;;;;;;;;;;6191234;28;20089;-73
2021/12/15 12:40:50;;;;;;;106.40;50.75;;;;;;;;;;6193178;28;20057;-73
2021/12/15 12:43:54;;;;;;;117.90;53.63;;;;;;;;;;6192124;28;20046;-71
2021/12/15 12:47:02;;;;;;;120.45;51.00;;;;;;;;;;6191843;28;20054;-73
2021/12/15 12:50:33;;;;;;;104.47;52.25;;;;;;;;;;6192226;28;20489;-70
2021/12/15 13:00:38;;;;;;;106.22;49.58;;;;;;;;;;6197912;28;20050;-72
2021/12/15 13:03:44;;;;;;;99.05;49.08;;;;;;;;;;6197002;28;20057;-72
2021/12/15 13:06:47;;;;;;;;;;;;;;;;;;6197890;28;20129;-72
2021/12/15 13:09:52;;;;;;;104.25;49.95;;;;;;;;;;6198170;28;19921;-72
2021/12/15 13:13:11;;;;;;;103.60;48.38;;;;;;;;;;6198335;28;20057;-72
2021/12/15 13:16:22;;;;;;;158.27;50.95;;;;;;;;;;6195333;28;20065;-74
2021/12/15 13:19:26;;;;;;;115.97;49.63;;;;;;;;;;6197492;28;20054;-73
2021/12/15 13:22:42;;;;;;;101.80;48.78;;;;;;;;;;6197864;28;20046;-72
2021/12/15 13:29:22;;;;;;;107.70;50.80;;;;;;;;;;6196234;28;20812;-74
2021/12/15 13:32:29;;;;;;;104.97;51.40;;;;;;;;;;6196062;28;20403;-74
2021/12/15 13:35:36;;;;;;;110.88;52.35;;;;;;;;;;6197387;28;20046;-74
2021/12/15 13:38:41;;;;;;;101.35;50.58;;;;;;;;;;6196648;28;20467;-73
2021/12/15 13:42:00;;;;;;;101.70;49.60;;;;;;;;;;6196037;28;20046;-73
2021/12/15 13:45:03;;;;;;;;;;;;;;;;;;6198039;28;20444;-74
2021/12/15 13:48:06;;;;;;;132.68;49.13;;;;;;;;;;6195752;28;19948;-74
2021/12/15 13:51:09;;;;;;;110.68;50.47;;;;;;;;;;6194535;28;20054;-73
2021/12/15 13:54:21;;;;;;;100.88;49.95;;;;;;;;;;6196466;28;20047;-74
2021/12/15 13:57:27;;;;;;;110.43;51.05;;;;;;;;;;6196874;28;20054;-74
2021/12/15 14:00:32;;;;;;;108.00;50.92;;;;;;;;;;6196525;28;20058;-72
2021/12/15 14:03:40;;;;;;;106.20;49.88;;;;;;;;;;6194038;28;20204;-72
2021/12/15 14:06:44;;;;;;;98.28;48.92;;;;;;;;;;6196701;28;20046;-72
2021/12/15 14:09:47;;;;;;;98.45;46.83;;;;;;;;;;6196153;28;20046;-73
2021/12/15 14:12:52;;;;;;;101.50;48.85;;;;;;;;;;6195182;28;20069;-71
2021/12/15 14:15:55;;;;;;;99.72;47.05;;;;;;;;;;6195918;28;20493;-71
2021/12/15 14:18:58;;;;;;;102.57;50.67;;;;;;;;;;6195079;28;20046;-72
2021/12/15 14:22:04;;;;;;;112.78;47.17;;;;;;;;;;6194599;28;20046;-72
2021/12/15 14:25:10;;;;;;;110.00;49.03;;;;;;;;;;6193598;28;20050;-73
2021/12/15 14:28:16;;;;;;;89.05;42.10;;;;;;;;;;6196030;28;20046;-74
2021/12/15 14:31:20;;;;;;;88.65;43.00;;;;;;;;;;6194779;28;20054;-72
2021/12/15 14:34:28;;;;;;;55.90;28.77;;;;;;;;;;6193536;28;20496;-71
2021/12/15 14:52:16;;;;;;;56.47;28.85;;;;;;;;;;6301191;27;1262865;-63
2021/12/15 14:55:23;;;;;;;47.00;25.83;;;;;;;;;;6315175;28;20056;-63
2021/12/15 14:58:44;;;;;;;43.80;24.80;;;;;;;;;;6295202;28;20048;-63
2021/12/15 15:01:48;;;;;;;42.72;24.13;;;;;;;;;;6295656;28;20486;-63
2021/12/15 15:04:53;;;;;;;39.05;21.90;;;;;;;;;;6314761;28;20424;-64
2021/12/15 15:07:58;;;;;;;42.92;22.90;;;;;;;;;;6296134;28;20055;-63
2021/12/15 15:11:04;;;;;;;37.83;21.50;;;;;;;;;;6313556;28;20073;-63
2021/12/15 15:14:09;;;;;;;37.67;19.90;;;;;;;;;;6314811;28;20048;-63
2021/12/15 15:17:28;;;;;;;35.30;19.55;;;;;;;;;;6296233;28;20091;-63
2021/12/15 15:20:37;;;;;;;35.13;18.52;;;;;;;;;;6314172;28;20048;-63
2021/12/15 15:23:42;;;;;;;36.92;20.63;;;;;;;;;;6313453;28;20048;-63
2021/12/15 15:26:53;;;;;;;38.92;21.17;;;;;;;;;;6314401;28;20056;-63
2021/12/15 15:29:58;;;;;;;36.05;20.08;;;;;;;;;;6314297;28;20547;-63
2021/12/15 15:33:03;;;;;;;37.10;21.35;;;;;;;;;;6313284;28;20498;-63
2021/12/15 15:36:10;;;;;;;33.55;17.95;;;;;;;;;;6313764;28;20398;-63
2021/12/15 15:39:15;;;;;;;32.92;17.70;;;;;;;;;;6295776;28;20070;-62
2021/12/15 15:42:22;;;;;;;34.35;18.20;;;;;;;;;;6295349;28;20044;-62
2021/12/15 15:45:27;;;;;;;94.18;38.95;;;;;;;;;;6294729;28;20098;-62
2021/12/15 15:48:34;;;;;;;33.63;18.95;;;;;;;;;;6295615;28;20490;-62
2021/12/15 15:51:43;;;;;;;34.42;18.00;;;;;;;;;;6287371;28;20668;-62
2021/12/15 16:06:01;;;;;;;30.53;18.23;;;;;;;;;;6280755;27;1940639;-62
2021/12/15 16:09:06;;;;;;;29.33;16.27;;;;;;;;;;6291472;28;20282;-63
2021/12/15 16:12:12;;;;;;;28.42;15.95;;;;;;;;;;6291584;28;20048;-65
2021/12/15 16:15:16;;;;;;;25.55;15.35;;;;;;;;;;6290830;28;20071;-63
2021/12/15 16:18:23;;;;;;;31.17;16.23;;;;;;;;;;6291719;28;20083;-64
2021/12/15 16:24:53;;;;;;;36.67;20.65;;;;;;;;;;6290027;28;20040;-63
2021/12/15 16:27:57;;;;;;;38.80;21.50;;;;;;;;;;6289527;28;20083;-64
2021/12/15 16:31:02;;;;;;;35.20;19.33;;;;;;;;;;6290655;28;20532;-64
2021/12/15 16:34:05;;;;;;;30.77;17.83;;;;;;;;;;6272775;28;20044;-64
2021/12/15 16:37:10;;;;;;;30.55;17.35;;;;;;;;;;6289847;28;20041;-63
2021/12/15 16:40:15;;;;;;;31.42;16.85;;;;;;;;;;6290906;28;20399;-64
2021/12/15 16:43:18;;;;;;;27.80;15.38;;;;;;;;;;6290837;28;20490;-63
2021/12/15 17:04:26;;;;;;;32.70;18.70;;;;;;;;;;6344781;27;1244597;-61
2021/12/15 17:07:32;;;;;;;37.17;21.90;;;;;;;;;;6371443;27;20050;-61
2021/12/15 17:10:39;;;;;;;31.92;18.33;;;;;;;;;;6392431;27;20049;-61
2021/12/15 17:13:45;;;;;;;32.08;18.08;;;;;;;;;;6373260;27;20066;-61
2021/12/15 17:16:49;;;;;;;34.55;18.35;;;;;;;;;;6374660;27;20039;-60
2021/12/15 17:19:53;;;;;;;32.53;18.45;;;;;;;;;;6367008;28;20047;-62
2021/12/15 17:23:02;;;;;;;30.60;17.40;;;;;;;;;;6348091;28;20050;-60
2021/12/15 17:26:08;;;;;;;31.52;17.67;;;;;;;;;;6366305;28;20047;-61
2021/12/15 17:29:14;;;;;;;34.90;18.17;;;;;;;;;;6348607;28;20035;-62
2021/12/15 17:32:17;;;;;;;30.05;17.42;;;;;;;;;;6348491;28;20070;-60
2021/12/15 17:35:21;;;;;;;34.05;19.05;;;;;;;;;;6365418;28;20054;-60
2021/12/15 17:38:28;;;;;;;35.65;19.55;;;;;;;;;;6366942;28;20055;-60
2021/12/15 17:41:33;;;;;;;30.85;17.85;;;;;;;;;;6366497;28;20043;-60
2021/12/15 17:44:39;;;;;;;33.22;18.75;;;;;;;;;;6365820;28;20089;-60
2021/12/15 17:47:42;;;;;;;;;;;;;;;;;;6366222;28;20396;-60
2021/12/15 17:50:50;;;;;;;35.22;17.75;;;;;;;;;;6347080;28;19924;-61
2021/12/15 17:53:55;;;;;;;35.97;17.52;;;;;;;;;;6363610;28;20035;-61
2021/12/15 17:57:00;;;;;;;34.13;18.67;;;;;;;;;;6364854;28;20089;-60
2021/12/15 18:00:04;;;;;;;35.78;19.98;;;;;;;;;;6351859;28;20578;-60
2021/12/15 18:03:15;;;;;;;36.03;19.27;;;;;;;;;;6348851;28;20413;-60
2021/12/15 18:06:19;;;;;;;172.85;93.50;;;;;;;;;;6347015;28;20051;-62
2021/12/15 18:09:26;;;;;;;36.72;20.08;;;;;;;;;;6346836;28;20297;-60
2021/12/15 18:12:29;;;;;;;36.88;20.02;;;;;;;;;;6347936;28;20553;-60
2021/12/15 18:15:32;;;;;;;37.13;19.65;;;;;;;;;;6348826;28;20554;-60
2021/12/15 18:18:35;;;;;;;36.28;18.15;;;;;;;;;;6347905;28;20062;-60
2021/12/15 18:21:42;;;;;;;36.25;19.05;;;;;;;;;;6345415;28;20036;-60
2021/12/15 18:24:44;;;;;;;37.00;19.15;;;;;;;;;;6347977;28;20054;-60
2021/12/15 18:27:48;;;;;;;34.35;19.48;;;;;;;;;;6347512;28;20040;-61
2021/12/15 18:30:52;;;;;;;37.20;19.23;;;;;;;;;;6347734;28;20059;-60
2021/12/15 18:33:55;;;;;;;33.97;18.70;;;;;;;;;;6346894;28;20058;-60
2021/12/15 18:37:00;;;;;;;34.65;19.48;;;;;;;;;;6348486;28;20051;-60
2021/12/15 18:40:05;;;;;;;39.95;19.27;;;;;;;;;;6347691;28;20040;-60
2021/12/15 18:43:08;;;;;;;37.88;20.10;;;;;;;;;;6347866;28;20039;-61
2021/12/15 18:46:15;;;;;;;36.38;20.08;;;;;;;;;;6345398;28;20089;-61
2021/12/15 18:49:21;;;;;;;36.30;19.40;;;;;;;;;;6344625;28;20040;-60
2021/12/15 18:52:29;;;;;;;35.38;19.85;;;;;;;;;;6345013;28;20048;-61
2021/12/15 18:55:32;;;;;;;35.42;18.38;;;;;;;;;;6345221;28;20523;-61
2021/12/15 18:58:36;;;;;;;36.25;19.00;;;;;;;;;;6345472;28;20043;-61
2021/12/15 19:01:41;;;;;;;31.80;18.67;;;;;;;;;;6346741;28;20043;-61
2021/12/15 19:04:45;;;;;;;31.88;18.73;;;;;;;;;;6344852;28;20054;-61
2021/12/15 19:07:49;;;;;;;34.13;18.85;;;;;;;;;;6344762;28;20064;-60
2021/12/15 19:10:52;;;;;;;33.50;18.42;;;;;;;;;;6344138;28;20062;-60
2021/12/15 19:13:56;;;;;;;32.08;18.38;;;;;;;;;;6344251;28;20058;-61
2021/12/15 19:17:00;;;;;;;34.97;18.30;;;;;;;;;;6344637;28;20043;-60
2021/12/15 19:20:09;;;;;;;30.80;16.73;;;;;;;;;;6344390;28;20482;-60
2021/12/15 19:23:15;;;;;;;31.65;17.63;;;;;;;;;;6344559;28;20048;-59
2021/12/15 19:26:18;;;;;;;31.60;18.13;;;;;;;;;;6345765;28;20138;-62
2021/12/15 19:29:22;;;;;;;31.30;17.20;;;;;;;;;;6345534;28;20050;-60
2021/12/15 19:32:25;;;;;;;30.45;16.10;;;;;;;;;;6343104;28;20551;-63
2021/12/15 19:35:28;;;;;;;28.13;15.90;;;;;;;;;;6345108;28;20044;-60
2021/12/15 19:38:33;;;;;;;30.98;16.75;;;;;;;;;;6345283;28;20047;-61
2021/12/15 19:41:38;;;;;;;29.60;16.63;;;;;;;;;;6343833;28;20047;-61
2021/12/15 19:44:41;;;;;;;31.10;16.95;;;;;;;;;;6344147;28;20438;-60
2021/12/15 19:47:44;;;;;;;29.35;17.23;;;;;;;;;;6345035;28;20070;-61